Terminal Aerodrome Forecast
Issued by NWS

Home | Current Version | Previous Version | Text Only | Print | Product List | Glossary On
Versions: 1 2 3 4 5 6 7 8 9 10 11 12 13 14 15 16 17
000
FTUS44 KCRP 010612 AAA
TAFALI
TAF AMD
KALI 010612Z 0106/0206 08004KT 2SM BR BKN008 OVC014
      TEMPO 0106/0109 1SM BR OVC008
     FM010900 VRB03KT 1/2SM FG OVC005
     FM011500 09008KT 6SM HZ BKN015 OVC030
     FM012000 11011KT P6SM BKN035
     FM020200 10008KT 5SM HZ BKN015=

USA.gov is the U.S. government's official web portal to all federal, state and local government web resources and services.